^^
Saratoga-Weather Station Historical Data
Daily Summary for January 14, 2021 Units:  Both    English   Metric
Daily Weekly Monthly Yearly Custom
  High: Low: Average:
Temperature: 30 °F /  -1.1 °C 17.2 °F /  -8.2 °C 21.9 °F /  -5.6 °C
Dew Point: 18 °F /  -7.8 °C 13.5 °F /  -10.3 °C 15.6 °F /  -9.1 °C
Humidity: 87% 60% 76%
Wind Speed: 7mph /  11.3km/h - 1.2mph /  1.9km/h
Wind Gust: 12mph /  19.3km/h - -
Wind- - ESE
Pressure: 30.6 in /  1037.6 hPa 30.6 in /  1035.9 hPa -
Precipitation: 0 in /  0.0 mm    
Historical Graphs
 
 
Tabular Data for January 14, 2021
Time Temperature Dew Point Pressure Wind Wind Speed Wind Gust Humidity Rainfall Rate (Hourly) solar
00:01 23.4 °F /  -4.8 °C 14.7 °F /  -9.6 °C 30.6in /  1037.6hPa ENE 6.9mph /  11.1km/h 7mph /  11.3km/h 69% 0in /  0.0mm 0 W/m2
00:06 23.5 °F /  -4.7 °C 15.3 °F /  -9.3 °C 30.6in /  1037.6hPa Calm   3mph /  4.8km/h 70% 0in /  0.0mm 0 W/m2
00:11 23.4 °F /  -4.8 °C 15.1 °F /  -9.4 °C 30.6in /  1037.6hPa East 7mph /  11.3km/h 7mph /  11.3km/h 70% 0in /  0.0mm 0 W/m2
00:16 23.4 °F /  -4.8 °C 15.1 °F /  -9.4 °C 30.6in /  1037.6hPa SE 0.9mph /  1.4km/h 2mph /  3.2km/h 70% 0in /  0.0mm 0 W/m2
00:21 23.4 °F /  -4.8 °C 15.1 °F /  -9.4 °C 30.6in /  1037.2hPa ESE 6mph /  9.7km/h 6mph /  9.7km/h 70% 0in /  0.0mm 0 W/m2
00:26 23.4 °F /  -4.8 °C 15.1 °F /  -9.4 °C 30.6in /  1036.9hPa SSE 2mph /  3.2km/h 4mph /  6.4km/h 70% 0in /  0.0mm 0 W/m2
00:31 23.7 °F /  -4.6 °C 15.4 °F /  -9.2 °C 30.6in /  1036.9hPa ESE 0.9mph /  1.4km/h 6mph /  9.7km/h 70% 0in /  0.0mm 0 W/m2
00:36 23.9 °F /  -4.5 °C 15.6 °F /  -9.1 °C 30.6in /  1036.6hPa SE 4mph /  6.4km/h 8mph /  12.9km/h 70% 0in /  0.0mm 0 W/m2
00:41 24.1 °F /  -4.4 °C 15.4 °F /  -9.2 °C 30.6in /  1036.6hPa ENE 4.9mph /  7.9km/h 12mph /  19.3km/h 69% 0in /  0.0mm 0 W/m2
00:46 24.3 °F /  -4.3 °C 15.6 °F /  -9.1 °C 30.6in /  1036.6hPa SE 2mph /  3.2km/h 4mph /  6.4km/h 69% 0in /  0.0mm 0 W/m2
00:51 24.1 °F /  -4.4 °C 15.8 °F /  -9 °C 30.6in /  1036.6hPa ESE 2mph /  3.2km/h 8mph /  12.9km/h 70% 0in /  0.0mm 0 W/m2
00:56 23.9 °F /  -4.5 °C 15.6 °F /  -9.1 °C 30.6in /  1036.6hPa East 0.9mph /  1.4km/h 4mph /  6.4km/h 70% 0in /  0.0mm 0 W/m2
01:01 23.7 °F /  -4.6 °C 15.4 °F /  -9.2 °C 30.6in /  1036.2hPa ENE 2mph /  3.2km/h 8mph /  12.9km/h 70% 0in /  0.0mm 0 W/m2
01:06 23.7 °F /  -4.6 °C 15.4 °F /  -9.2 °C 30.6in /  1036.2hPa ESE 2mph /  3.2km/h 3mph /  4.8km/h 70% 0in /  0.0mm 0 W/m2
01:11 23.7 °F /  -4.6 °C 15.6 °F /  -9.1 °C 30.6in /  1036.2hPa East 2mph /  3.2km/h 6mph /  9.7km/h 71% 0in /  0.0mm 0 W/m2
01:16 23.7 °F /  -4.6 °C 15.6 °F /  -9.1 °C 30.6in /  1036.2hPa ESE 2.9mph /  4.7km/h 3mph /  4.8km/h 71% 0in /  0.0mm 0 W/m2
01:21 23.7 °F /  -4.6 °C 15.6 °F /  -9.1 °C 30.6in /  1036.2hPa Calm   6mph /  9.7km/h 71% 0in /  0.0mm 0 W/m2
01:26 23.5 °F /  -4.7 °C 15.4 °F /  -9.2 °C 30.6in /  1036.2hPa East 2mph /  3.2km/h 3mph /  4.8km/h 71% 0in /  0.0mm 0 W/m2
01:31 23.5 °F /  -4.7 °C 15.4 °F /  -9.2 °C 30.6in /  1036.2hPa ESE 2mph /  3.2km/h 3mph /  4.8km/h 71% 0in /  0.0mm 0 W/m2
01:36 23.5 °F /  -4.7 °C 15.4 °F /  -9.2 °C 30.6in /  1036.6hPa East 6.9mph /  11.1km/h 8mph /  12.9km/h 71% 0in /  0.0mm 0 W/m2
01:41 23.5 °F /  -4.7 °C 15.8 °F /  -9 °C 30.6in /  1036.6hPa Calm   2mph /  3.2km/h 72% 0in /  0.0mm 0 W/m2
01:46 23.5 °F /  -4.7 °C 15.8 °F /  -9 °C 30.6in /  1036.6hPa SE 2mph /  3.2km/h 10mph /  16.1km/h 72% 0in /  0.0mm 0 W/m2
01:51 23.5 °F /  -4.7 °C 15.8 °F /  -9 °C 30.6in /  1036.6hPa East 2mph /  3.2km/h 2mph /  3.2km/h 72% 0in /  0.0mm 0 W/m2
01:56 23.5 °F /  -4.7 °C 15.8 °F /  -9 °C 30.6in /  1036.6hPa ESE 0.9mph /  1.4km/h 9mph /  14.5km/h 72% 0in /  0.0mm 0 W/m2
02:01 23.4 °F /  -4.8 °C 15.6 °F /  -9.1 °C 30.6in /  1036.9hPa Calm   1mph /  1.6km/h 72% 0in /  0.0mm 0 W/m2
02:06 23.2 °F /  -4.9 °C 15.8 °F /  -9 °C 30.6in /  1036.6hPa Calm   2mph /  3.2km/h 73% 0in /  0.0mm 0 W/m2
02:11 22.8 °F /  -5.1 °C 15.4 °F /  -9.2 °C 30.6in /  1036.9hPa SE 4mph /  6.4km/h 6mph /  9.7km/h 73% 0in /  0.0mm 0 W/m2
02:16 22.8 °F /  -5.1 °C 15.4 °F /  -9.2 °C 30.6in /  1036.9hPa East 2mph /  3.2km/h 3mph /  4.8km/h 73% 0in /  0.0mm 0 W/m2
02:21 22.6 °F /  -5.2 °C 15.6 °F /  -9.1 °C 30.6in /  1037.2hPa Calm     74% 0in /  0.0mm 0 W/m2
02:26 22.6 °F /  -5.2 °C 15.6 °F /  -9.1 °C 30.6in /  1037.2hPa ESE 0.9mph /  1.4km/h 2mph /  3.2km/h 74% 0in /  0.0mm 0 W/m2
02:31 22.5 °F /  -5.3 °C 15.4 °F /  -9.2 °C 30.6in /  1037.2hPa ESE 0.9mph /  1.4km/h 1mph /  1.6km/h 74% 0in /  0.0mm 0 W/m2
02:36 22.3 °F /  -5.4 °C 15.3 °F /  -9.3 °C 30.6in /  1037.2hPa ESE 0.9mph /  1.4km/h 2mph /  3.2km/h 74% 0in /  0.0mm 0 W/m2
02:41 21.9 °F /  -5.6 °C 15.3 °F /  -9.3 °C 30.6in /  1037.6hPa ESE 2mph /  3.2km/h 2mph /  3.2km/h 75% 0in /  0.0mm 0 W/m2
02:46 21.7 °F /  -5.7 °C 15.3 °F /  -9.3 °C 30.6in /  1037.6hPa Calm   2mph /  3.2km/h 76% 0in /  0.0mm 0 W/m2
02:52 21.7 °F /  -5.7 °C 15.3 °F /  -9.3 °C 30.6in /  1037.6hPa Calm     76% 0in /  0.0mm 0 W/m2
02:57 21.7 °F /  -5.7 °C 15.3 °F /  -9.3 °C 30.6in /  1037.6hPa Calm     76% 0in /  0.0mm 0 W/m2
03:02 21.6 °F /  -5.8 °C 15.3 °F /  -9.3 °C 30.6in /  1037.6hPa Calm   2mph /  3.2km/h 76% 0in /  0.0mm 0 W/m2
03:07 21.2 °F /  -6 °C 15.1 °F /  -9.4 °C 30.6in /  1037.6hPa Calm     77% 0in /  0.0mm 0 W/m2
03:12 21 °F /  -6.1 °C 14.9 °F /  -9.5 °C 30.6in /  1037.6hPa Calm   1mph /  1.6km/h 77% 0in /  0.0mm 0 W/m2
03:17 20.8 °F /  -6.2 °C 15.1 °F /  -9.4 °C 30.6in /  1037.6hPa Calm     78% 0in /  0.0mm 0 W/m2
03:22 20.7 °F /  -6.3 °C 14.9 °F /  -9.5 °C 30.6in /  1037.6hPa ESE 0.9mph /  1.4km/h 1mph /  1.6km/h 78% 0in /  0.0mm 0 W/m2
03:27 20.5 °F /  -6.4 °C 15.1 °F /  -9.4 °C 30.6in /  1037.6hPa Calm   2mph /  3.2km/h 79% 0in /  0.0mm 0 W/m2
03:32 20.7 °F /  -6.3 °C 15.3 °F /  -9.3 °C 30.6in /  1037.6hPa Calm   1mph /  1.6km/h 79% 0in /  0.0mm 0 W/m2
03:37 20.8 °F /  -6.2 °C 15.4 °F /  -9.2 °C 30.6in /  1037.6hPa Calm   2mph /  3.2km/h 79% 0in /  0.0mm 0 W/m2
03:42 20.8 °F /  -6.2 °C 15.4 °F /  -9.2 °C 30.6in /  1037.2hPa Calm   1mph /  1.6km/h 79% 0in /  0.0mm 0 W/m2
03:47 20.8 °F /  -6.2 °C 15.4 °F /  -9.2 °C 30.6in /  1037.2hPa Calm   1mph /  1.6km/h 79% 0in /  0.0mm 0 W/m2
03:52 20.7 °F /  -6.3 °C 15.3 °F /  -9.3 °C 30.6in /  1037.2hPa ESE 0.9mph /  1.4km/h 3mph /  4.8km/h 79% 0in /  0.0mm 0 W/m2
03:57 20.8 °F /  -6.2 °C 15.4 °F /  -9.2 °C 30.6in /  1037.2hPa ESE 0.9mph /  1.4km/h 2mph /  3.2km/h 79% 0in /  0.0mm 0 W/m2
04:02 21 °F /  -6.1 °C 15.6 °F /  -9.1 °C 30.6in /  1036.9hPa ESE 0.9mph /  1.4km/h 3mph /  4.8km/h 79% 0in /  0.0mm 0 W/m2
04:07 21 °F /  -6.1 °C 15.3 °F /  -9.3 °C 30.6in /  1036.9hPa ESE 0.9mph /  1.4km/h 2mph /  3.2km/h 78% 0in /  0.0mm 0 W/m2
04:12 21 °F /  -6.1 °C 15.6 °F /  -9.1 °C 30.6in /  1036.9hPa ESE 0.9mph /  1.4km/h 1mph /  1.6km/h 79% 0in /  0.0mm 0 W/m2
04:17 20.8 °F /  -6.2 °C 15.4 °F /  -9.2 °C 30.6in /  1036.6hPa Calm   2mph /  3.2km/h 79% 0in /  0.0mm 0 W/m2
04:22 20.8 °F /  -6.2 °C 15.4 °F /  -9.2 °C 30.6in /  1036.6hPa Calm     79% 0in /  0.0mm 0 W/m2
04:27 20.7 °F /  -6.3 °C 15.3 °F /  -9.3 °C 30.6in /  1036.9hPa ESE 0.9mph /  1.4km/h 1mph /  1.6km/h 79% 0in /  0.0mm 0 W/m2
04:32 20.7 °F /  -6.3 °C 15.3 °F /  -9.3 °C 30.6in /  1036.9hPa Calm   2mph /  3.2km/h 79% 0in /  0.0mm 0 W/m2
04:37 20.7 °F /  -6.3 °C 15.3 °F /  -9.3 °C 30.6in /  1036.9hPa ESE 0.9mph /  1.4km/h 1mph /  1.6km/h 79% 0in /  0.0mm 0 W/m2
04:42 20.7 °F /  -6.3 °C 15.3 °F /  -9.3 °C 30.6in /  1036.9hPa ESE 2mph /  3.2km/h 3mph /  4.8km/h 79% 0in /  0.0mm 0 W/m2
04:47 20.7 °F /  -6.3 °C 15.3 °F /  -9.3 °C 30.6in /  1036.9hPa ESE 0.9mph /  1.4km/h 1mph /  1.6km/h 79% 0in /  0.0mm 0 W/m2
04:52 20.7 °F /  -6.3 °C 15.3 °F /  -9.3 °C 30.6in /  1036.9hPa Calm   3mph /  4.8km/h 79% 0in /  0.0mm 0 W/m2
04:57 20.7 °F /  -6.3 °C 15.3 °F /  -9.3 °C 30.6in /  1036.9hPa ESE 0.9mph /  1.4km/h 2mph /  3.2km/h 79% 0in /  0.0mm 0 W/m2
05:02 20.8 °F /  -6.2 °C 15.4 °F /  -9.2 °C 30.6in /  1036.9hPa Calm   1mph /  1.6km/h 79% 0in /  0.0mm 0 W/m2
05:07 20.8 °F /  -6.2 °C 15.4 °F /  -9.2 °C 30.6in /  1036.9hPa Calm   1mph /  1.6km/h 79% 0in /  0.0mm 0 W/m2
05:12 20.8 °F /  -6.2 °C 15.4 °F /  -9.2 °C 30.6in /  1036.9hPa Calm   1mph /  1.6km/h 79% 0in /  0.0mm 0 W/m2
05:17 20.8 °F /  -6.2 °C 15.4 °F /  -9.2 °C 30.6in /  1036.9hPa ESE 2mph /  3.2km/h 2mph /  3.2km/h 79% 0in /  0.0mm 0 W/m2
05:22 21 °F /  -6.1 °C 15.3 °F /  -9.3 °C 30.6in /  1036.9hPa ESE 0.9mph /  1.4km/h 1mph /  1.6km/h 78% 0in /  0.0mm 0 W/m2
05:27 21 °F /  -6.1 °C 15.3 °F /  -9.3 °C 30.6in /  1036.6hPa SE 0.9mph /  1.4km/h 2mph /  3.2km/h 78% 0in /  0.0mm 0 W/m2
05:32 21.2 °F /  -6 °C 15.4 °F /  -9.2 °C 30.6in /  1036.6hPa Calm   2mph /  3.2km/h 78% 0in /  0.0mm 0 W/m2
05:37 21 °F /  -6.1 °C 15.3 °F /  -9.3 °C 30.6in /  1036.6hPa East 2.9mph /  4.7km/h 4mph /  6.4km/h 78% 0in /  0.0mm 0 W/m2
05:42 21 °F /  -6.1 °C 15.3 °F /  -9.3 °C 30.6in /  1036.6hPa East 0.9mph /  1.4km/h 3mph /  4.8km/h 78% 0in /  0.0mm 0 W/m2
05:47 21 °F /  -6.1 °C 15.3 °F /  -9.3 °C 30.6in /  1036.6hPa East 0.9mph /  1.4km/h 2mph /  3.2km/h 78% 0in /  0.0mm 0 W/m2
05:52 21 °F /  -6.1 °C 15.3 °F /  -9.3 °C 30.6in /  1036.2hPa Calm   2mph /  3.2km/h 78% 0in /  0.0mm 0 W/m2
05:57 20.8 °F /  -6.2 °C 15.1 °F /  -9.4 °C 30.6in /  1036.2hPa ESE 0.9mph /  1.4km/h 3mph /  4.8km/h 78% 0in /  0.0mm 0 W/m2
06:02 20.7 °F /  -6.3 °C 14.9 °F /  -9.5 °C 30.6in /  1036.2hPa Calm     78% 0in /  0.0mm 0 W/m2
06:07 20.5 °F /  -6.4 °C 15.1 °F /  -9.4 °C 30.6in /  1036.2hPa Calm   3mph /  4.8km/h 79% 0in /  0.0mm 0 W/m2
06:12 20.3 °F /  -6.5 °C 14.9 °F /  -9.5 °C 30.6in /  1036.2hPa ESE 0.9mph /  1.4km/h 1mph /  1.6km/h 79% 0in /  0.0mm 0 W/m2
06:17 19.9 °F /  -6.7 °C 14.5 °F /  -9.7 °C 30.6in /  1036.2hPa Calm   2mph /  3.2km/h 79% 0in /  0.0mm 0 W/m2
06:22 19.9 °F /  -6.7 °C 14.7 °F /  -9.6 °C 30.6in /  1036.2hPa Calm   1mph /  1.6km/h 80% 0in /  0.0mm 0 W/m2
06:27 19.8 °F /  -6.8 °C 14.5 °F /  -9.7 °C 30.6in /  1036.2hPa Calm   2mph /  3.2km/h 80% 0in /  0.0mm 0 W/m2
06:32 19.4 °F /  -7 °C 14.2 °F /  -9.9 °C 30.6in /  1035.9hPa Calm     80% 0in /  0.0mm 0 W/m2
06:37 19 °F /  -7.2 °C 13.8 °F /  -10.1 °C 30.6in /  1035.9hPa Calm   2mph /  3.2km/h 80% 0in /  0.0mm 0 W/m2
06:42 18.9 °F /  -7.3 °C 14 °F /  -10 °C 30.6in /  1036.2hPa Calm   2mph /  3.2km/h 81% 0in /  0.0mm 0 W/m2
06:47 18.5 °F /  -7.5 °C 13.6 °F /  -10.2 °C 30.6in /  1036.2hPa Calm   2mph /  3.2km/h 81% 0in /  0.0mm 0 W/m2
06:52 18.1 °F /  -7.7 °C 13.6 °F /  -10.2 °C 30.6in /  1036.2hPa Calm     82% 0in /  0.0mm 0 W/m2
06:57 18 °F /  -7.8 °C 13.6 °F /  -10.2 °C 30.6in /  1036.2hPa Calm   2mph /  3.2km/h 83% 0in /  0.0mm 0 W/m2
07:02 18 °F /  -7.8 °C 13.6 °F /  -10.2 °C 30.6in /  1036.2hPa Calm     83% 0in /  0.0mm 0 W/m2
07:07 17.8 °F /  -7.9 °C 13.8 °F /  -10.1 °C 30.6in /  1036.2hPa Calm     84% 0in /  0.0mm 0 W/m2
07:12 17.6 °F /  -8 °C 13.6 °F /  -10.2 °C 30.6in /  1036.2hPa Calm     84% 0in /  0.0mm 0 W/m2
07:17 17.4 °F /  -8.1 °C 13.6 °F /  -10.2 °C 30.6in /  1036.2hPa Calm     85% 0in /  0.0mm 0 W/m2
07:22 17.2 °F /  -8.2 °C 13.5 °F /  -10.3 °C 30.6in /  1036.2hPa Calm     85% 0in /  0.0mm 0 W/m2
07:27 17.2 °F /  -8.2 °C 13.8 °F /  -10.1 °C 30.6in /  1036.6hPa Calm     86% 0in /  0.0mm 0 W/m2
07:32 17.2 °F /  -8.2 °C 13.8 °F /  -10.1 °C 30.6in /  1036.6hPa Calm     86% 0in /  0.0mm 0 W/m2
07:37 17.2 °F /  -8.2 °C 13.8 °F /  -10.1 °C 30.6in /  1036.2hPa Calm     86% 0in /  0.0mm 0 W/m2
07:42 17.4 °F /  -8.1 °C 14.2 °F /  -9.9 °C 30.6in /  1036.2hPa Calm     87% 0in /  0.0mm 5 W/m2
07:47 17.4 °F /  -8.1 °C 14.2 °F /  -9.9 °C 30.6in /  1036.6hPa Calm     87% 0in /  0.0mm 5 W/m2
07:52 17.4 °F /  -8.1 °C 14.2 °F /  -9.9 °C 30.6in /  1036.6hPa Calm     87% 0in /  0.0mm 9 W/m2
07:57 17.4 °F /  -8.1 °C 14.2 °F /  -9.9 °C 30.6in /  1036.6hPa Calm     87% 0in /  0.0mm 12 W/m2
08:02 17.6 °F /  -8 °C 14.4 °F /  -9.8 °C 30.6in /  1036.6hPa Calm     87% 0in /  0.0mm 14 W/m2
08:07 17.8 °F /  -7.9 °C 14.5 °F /  -9.7 °C 30.6in /  1036.6hPa Calm     87% 0in /  0.0mm 18 W/m2
08:12 18.1 °F /  -7.7 °C 14.9 °F /  -9.5 °C 30.6in /  1036.6hPa Calm     87% 0in /  0.0mm 21 W/m2
08:17 18.3 °F /  -7.6 °C 15.1 °F /  -9.4 °C 30.6in /  1036.9hPa Calm     87% 0in /  0.0mm 26 W/m2
08:22 18.5 °F /  -7.5 °C 15.1 °F /  -9.4 °C 30.6in /  1036.9hPa Calm   1mph /  1.6km/h 86% 0in /  0.0mm 30 W/m2
08:27 18.7 °F /  -7.4 °C 15.3 °F /  -9.3 °C 30.6in /  1036.9hPa Calm     86% 0in /  0.0mm 37 W/m2
08:32 19 °F /  -7.2 °C 15.6 °F /  -9.1 °C 30.6in /  1036.9hPa Calm     86% 0in /  0.0mm 54 W/m2
08:37 19.2 °F /  -7.1 °C 15.8 °F /  -9 °C 30.6in /  1036.9hPa Calm     86% 0in /  0.0mm 62 W/m2
08:42 19.8 °F /  -6.8 °C 16 °F /  -8.9 °C 30.6in /  1036.9hPa Calm   1mph /  1.6km/h 85% 0in /  0.0mm 67 W/m2
08:47 19.9 °F /  -6.7 °C 16.2 °F /  -8.8 °C 30.6in /  1036.9hPa SE 0.9mph /  1.4km/h 2mph /  3.2km/h 85% 0in /  0.0mm 69 W/m2
08:53 20.5 °F /  -6.4 °C 16.3 °F /  -8.7 °C 30.6in /  1037.2hPa Calm   2mph /  3.2km/h 84% 0in /  0.0mm 40 W/m2
08:58 20.7 °F /  -6.3 °C 16.3 °F /  -8.7 °C 30.6in /  1037.2hPa SE 2mph /  3.2km/h 3mph /  4.8km/h 83% 0in /  0.0mm 35 W/m2
09:03 21.2 °F /  -6 °C 16.5 °F /  -8.6 °C 30.6in /  1037.2hPa ESE 2mph /  3.2km/h 3mph /  4.8km/h 82% 0in /  0.0mm 32 W/m2
09:08 21.7 °F /  -5.7 °C 16.5 °F /  -8.6 °C 30.6in /  1037.2hPa Calm   3mph /  4.8km/h 80% 0in /  0.0mm 26 W/m2
09:13 21.9 °F /  -5.6 °C 16.3 °F /  -8.7 °C 30.6in /  1037.2hPa East 0.9mph /  1.4km/h 3mph /  4.8km/h 79% 0in /  0.0mm 26 W/m2
09:18 22.1 °F /  -5.5 °C 16.3 °F /  -8.7 °C 30.6in /  1037.2hPa ESE 0.9mph /  1.4km/h 2mph /  3.2km/h 78% 0in /  0.0mm 28 W/m2
09:23 22.3 °F /  -5.4 °C 16.5 °F /  -8.6 °C 30.6in /  1037.2hPa ESE 2mph /  3.2km/h 3mph /  4.8km/h 78% 0in /  0.0mm 81 W/m2
09:28 22.6 °F /  -5.2 °C 16.9 °F /  -8.4 °C 30.6in /  1037.2hPa ESE 0.9mph /  1.4km/h 2mph /  3.2km/h 78% 0in /  0.0mm 199 W/m2
09:33 23.4 °F /  -4.8 °C 17.2 °F /  -8.2 °C 30.6in /  1037.2hPa ESE 0.9mph /  1.4km/h 3mph /  4.8km/h 77% 0in /  0.0mm 221 W/m2
09:38 24.3 °F /  -4.3 °C 17.8 °F /  -7.9 °C 30.6in /  1037.2hPa ESE 2mph /  3.2km/h 3mph /  4.8km/h 76% 0in /  0.0mm 243 W/m2
09:43 24.8 °F /  -4 °C 17.8 °F /  -7.9 °C 30.6in /  1037.2hPa East 2mph /  3.2km/h 3mph /  4.8km/h 74% 0in /  0.0mm 243 W/m2
09:48 25.2 °F /  -3.8 °C 17.8 °F /  -7.9 °C 30.6in /  1037.2hPa East 2mph /  3.2km/h 3mph /  4.8km/h 73% 0in /  0.0mm 211 W/m2
09:53 25.5 °F /  -3.6 °C 17.8 °F /  -7.9 °C 30.6in /  1037.2hPa East 0.9mph /  1.4km/h 5mph /  8km/h 72% 0in /  0.0mm 200 W/m2
09:58 26.1 °F /  -3.3 °C 18 °F /  -7.8 °C 30.6in /  1037.2hPa ESE 0.9mph /  1.4km/h 3mph /  4.8km/h 71% 0in /  0.0mm 243 W/m2
10:03 26.2 °F /  -3.2 °C 17.4 °F /  -8.1 °C 30.6in /  1037.2hPa East 2mph /  3.2km/h 4mph /  6.4km/h 69% 0in /  0.0mm 244 W/m2
10:08 26.8 °F /  -2.9 °C 18 °F /  -7.8 °C 30.6in /  1037.2hPa ENE 2mph /  3.2km/h 4mph /  6.4km/h 69% 0in /  0.0mm 271 W/m2
10:13 27 °F /  -2.8 °C 17.8 °F /  -7.9 °C 30.6in /  1037.2hPa SE 2mph /  3.2km/h 9mph /  14.5km/h 68% 0in /  0.0mm 227 W/m2
10:18 27.3 °F /  -2.6 °C 17.8 °F /  -7.9 °C 30.6in /  1037.2hPa East 2mph /  3.2km/h 7mph /  11.3km/h 67% 0in /  0.0mm 255 W/m2
10:23 27.5 °F /  -2.5 °C 18 °F /  -7.8 °C 30.6in /  1037.2hPa East 2.9mph /  4.7km/h 9mph /  14.5km/h 67% 0in /  0.0mm 178 W/m2
10:28 27.7 °F /  -2.4 °C 17.8 °F /  -7.9 °C 30.6in /  1036.9hPa East 2.9mph /  4.7km/h 6mph /  9.7km/h 66% 0in /  0.0mm 199 W/m2
10:33 27.9 °F /  -2.3 °C 18 °F /  -7.8 °C 30.6in /  1036.9hPa East 2.9mph /  4.7km/h 7mph /  11.3km/h 66% 0in /  0.0mm 148 W/m2
10:38 28 °F /  -2.2 °C 17.8 °F /  -7.9 °C 30.6in /  1036.9hPa ENE 2mph /  3.2km/h 7mph /  11.3km/h 65% 0in /  0.0mm 93 W/m2
10:43 28.2 °F /  -2.1 °C 17.6 °F /  -8 °C 30.6in /  1036.9hPa East 2mph /  3.2km/h 4mph /  6.4km/h 64% 0in /  0.0mm 86 W/m2
10:48 28.6 °F /  -1.9 °C 17.6 °F /  -8 °C 30.6in /  1036.9hPa ESE 6mph /  9.7km/h 8mph /  12.9km/h 63% 0in /  0.0mm 63 W/m2
10:53 28.8 °F /  -1.8 °C 17.4 °F /  -8.1 °C 30.6in /  1036.9hPa ESE 6mph /  9.7km/h 9mph /  14.5km/h 62% 0in /  0.0mm 123 W/m2
10:58 28.9 °F /  -1.7 °C 17.6 °F /  -8 °C 30.6in /  1036.9hPa ESE 0.9mph /  1.4km/h 4mph /  6.4km/h 62% 0in /  0.0mm 128 W/m2
11:03 29.1 °F /  -1.6 °C 17.4 °F /  -8.1 °C 30.6in /  1036.9hPa East 4mph /  6.4km/h 7mph /  11.3km/h 61% 0in /  0.0mm 221 W/m2
11:08 29.5 °F /  -1.4 °C 17.8 °F /  -7.9 °C 30.6in /  1036.9hPa East 2.9mph /  4.7km/h 7mph /  11.3km/h 61% 0in /  0.0mm 132 W/m2
11:13 29.7 °F /  -1.3 °C 17.8 °F /  -7.9 °C 30.6in /  1036.9hPa East 2.9mph /  4.7km/h 6mph /  9.7km/h 61% 0in /  0.0mm 128 W/m2
11:18 30 °F /  -1.1 °C 17.8 °F /  -7.9 °C 30.6in /  1036.9hPa ESE 2mph /  3.2km/h 6mph /  9.7km/h 60% 0in /  0.0mm 74 W/m2
Juneau County Weather
Compliments of Weather Underground - 4 mb